Time;durP1;ratioP1;P1;durP2;ratioP2;P2;SDS_P1;SDS_P2;PMS_P1;PMS_P2;Temp;Humidity;BMP_temperature;BMP_pressure;BME280_temperature;BME280_humidity;BME280_pressure;Samples;Min_cycle;Max_cycle;Signal;HPM_P1;HPM_P2
2023/08/21 00:01:41;;;;;;;11.35;6.57;;;;;;;21.19;92.88;101436.81;6167868;23;20092;-81
2023/08/21 00:04:07;;;;;;;11.70;6.60;;;;;;;21.20;92.31;101442.97;6167738;23;20076;-80
2023/08/21 00:06:34;;;;;;;10.93;7.57;;;;;;;21.09;92.14;101432.94;6167381;23;20025;-83
2023/08/21 00:09:02;;;;;;;12.65;8.93;;;;;;;21.07;92.15;101443.78;6167386;23;20053;-81
2023/08/21 00:11:29;;;;;;;11.38;6.78;;;;;;;21.00;92.19;101431.50;6167654;23;20025;-81
2023/08/21 00:13:56;;;;;;;9.93;6.57;;;;;;;20.96;92.80;101436.41;6165734;23;20063;-83
2023/08/21 00:16:23;;;;;;;10.93;6.00;;;;;;;20.93;93.10;101451.94;6164967;23;20059;-84
2023/08/21 00:18:49;;;;;;;10.18;5.90;;;;;;;20.81;93.09;101446.41;6165836;23;20025;-82
2023/08/21 00:21:16;;;;;;;11.13;6.43;;;;;;;20.73;93.34;101442.13;6167846;23;20026;-79
2023/08/21 00:23:42;;;;;;;11.07;6.20;;;;;;;20.69;93.98;101448.06;6165358;23;20052;-82
2023/08/21 00:26:10;;;;;;;11.27;6.20;;;;;;;20.66;94.10;101435.97;6165393;23;20056;-83
2023/08/21 00:28:37;;;;;;;7.10;5.75;;;;;;;20.62;94.31;101439.25;6168521;23;20025;-82
2023/08/21 00:31:04;;;;;;;10.70;6.18;;;;;;;20.54;94.87;101449.06;6169573;23;20053;-78
2023/08/21 00:33:31;;;;;;;11.35;8.77;;;;;;;20.47;95.51;101442.06;6175461;23;20022;-81
2023/08/21 00:35:58;;;;;;;15.98;9.90;;;;;;;20.42;96.06;101439.19;6169776;23;20052;-84
2023/08/21 00:38:26;;;;;;;13.05;9.38;;;;;;;20.44;96.20;101443.31;6167803;23;20021;-81
2023/08/21 00:40:53;;;;;;;10.98;7.32;;;;;;;20.35;96.27;101446.31;6163463;23;20055;-80
2023/08/21 00:43:21;;;;;;;12.60;6.82;;;;;;;20.39;96.26;101439.59;6168981;23;20029;-83
2023/08/21 00:45:48;;;;;;;8.77;6.55;;;;;;;20.32;96.44;101428.91;6170537;23;20025;-82
2023/08/21 00:48:15;;;;;;;9.57;6.20;;;;;;;20.33;96.55;101443.03;6171555;23;20088;-81
2023/08/21 00:50:42;;;;;;;11.60;6.97;;;;;;;20.29;96.67;101441.81;6170204;23;20021;-82
2023/08/21 00:53:09;;;;;;;10.77;6.97;;;;;;;20.18;96.65;101432.56;6169365;23;20063;-80
2023/08/21 00:55:36;;;;;;;8.27;5.97;;;;;;;20.19;96.39;101431.56;6168003;23;20026;-82
2023/08/21 00:58:04;;;;;;;9.18;6.13;;;;;;;20.15;96.48;101438.28;6169787;23;20072;-81
2023/08/21 01:00:33;;;;;;;16.27;6.72;;;;;;;20.08;96.84;101442.75;6168918;23;20017;-84
2023/08/21 01:02:59;;;;;;;12.57;6.28;;;;;;;19.98;97.18;101437.81;6170917;23;20036;-79
2023/08/21 01:05:26;;;;;;;10.85;6.28;;;;;;;19.97;97.52;101446.78;6170561;23;20026;-80
2023/08/21 01:07:58;;;;;;;12.32;7.10;;;;;;;19.97;97.53;101443.31;6171307;23;20036;-80
2023/08/21 01:10:37;;;;;;;10.10;6.25;;;;;;;19.86;97.94;101428.75;6170409;23;20116;-84
2023/08/21 01:13:12;;;;;;;11.35;6.45;;;;;;;19.88;98.12;101434.69;6171067;23;20032;-81
2023/08/21 01:15:41;;;;;;;10.75;6.68;;;;;;;19.86;97.99;101432.22;6169586;23;20029;-81
2023/08/21 01:18:09;;;;;;;13.65;7.22;;;;;;;19.82;98.20;101438.16;6169775;23;20033;-79
2023/08/21 01:20:36;;;;;;;11.98;6.80;;;;;;;19.85;97.94;101443.88;6167913;23;20028;-82
2023/08/21 01:23:06;;;;;;;11.35;6.20;;;;;;;19.86;98.04;101439.38;6166340;23;20398;-82
2023/08/21 01:25:34;;;;;;;10.07;6.53;;;;;;;19.84;98.17;101442.25;6166121;23;20060;-80
2023/08/21 01:28:01;;;;;;;11.10;6.70;;;;;;;19.84;98.43;101446.75;6169772;23;20022;-82
2023/08/21 01:30:31;;;;;;;10.95;6.72;;;;;;;19.83;98.24;101451.25;6174068;23;20025;-80
2023/08/21 01:33:01;;;;;;;20.25;10.57;;;;;;;19.76;98.45;101445.09;6172458;23;20029;-83
2023/08/21 01:35:30;;;;;;;22.50;11.88;;;;;;;19.73;98.21;101447.31;6168101;23;20344;-80
2023/08/21 01:37:57;;;;;;;12.57;6.90;;;;;;;19.70;98.82;101458.31;6169691;23;20025;-79
2023/08/21 01:40:25;;;;;;;12.88;6.20;;;;;;;19.63;99.34;101460.94;6169299;23;20022;-82
2023/08/21 01:42:54;;;;;;;9.35;5.72;;;;;;;19.62;99.65;101458.47;6168224;23;20083;-82
2023/08/21 01:45:22;;;;;;;10.70;6.05;;;;;;;19.63;99.30;101468.06;6168923;23;20026;-80
2023/08/21 01:47:48;;;;;;;7.88;5.68;;;;;;;19.60;99.17;101465.81;6163148;23;20091;-82
2023/08/21 01:50:15;;;;;;;12.90;5.57;;;;;;;19.52;99.11;101453.50;6164670;23;20410;-82
2023/08/21 01:52:41;;;;;;;9.23;5.70;;;;;;;19.55;99.20;101461.91;6165380;23;20335;-81
2023/08/21 01:55:10;;;;;;;11.98;6.28;;;;;;;19.54;99.24;101468.22;6164275;23;20044;-80
2023/08/21 01:57:36;;;;;;;11.30;6.35;;;;;;;19.53;99.28;101466.59;6163309;23;20049;-83
2023/08/21 02:00:06;;;;;;;10.48;5.75;;;;;;;19.52;99.34;101453.50;6168917;23;20040;-83
2023/08/21 02:02:33;;;;;;;11.55;5.97;;;;;;;19.51;99.35;101465.13;6168081;23;20025;-83
2023/08/21 02:04:59;;;;;;;12.32;6.00;;;;;;;19.40;99.74;101461.16;6164500;23;20516;-84
2023/08/21 02:07:26;;;;;;;10.68;5.47;;;;;;;19.35;100.00;101458.28;6169067;23;20109;-81
2023/08/21 02:09:53;;;;;;;9.93;5.50;;;;;;;19.36;100.00;101461.75;6169597;23;20285;-82
2023/08/21 02:12:19;;;;;;;12.75;6.00;;;;;;;19.34;100.00;101459.28;6171407;23;20029;-82
2023/08/21 02:14:46;;;;;;;8.88;5.47;;;;;;;19.32;100.00;101449.88;6171409;23;20032;-83
2023/08/21 02:17:14;;;;;;;13.63;5.50;;;;;;;19.39;100.00;101453.38;6172856;23;20026;-81
2023/08/21 02:19:40;;;;;;;8.57;6.05;;;;;;;19.30;100.00;101454.56;6172517;23;20022;-79
2023/08/21 02:22:07;;;;;;;10.30;5.72;;;;;;;19.22;100.00;101459.00;6168542;23;20021;-81
2023/08/21 02:24:34;;;;;;;11.13;5.20;;;;;;;19.25;100.00;101455.13;6167773;23;20466;-83
2023/08/21 02:27:00;;;;;;;9.32;6.05;;;;;;;19.22;100.00;101447.56;6172740;23;20064;-83
2023/08/21 02:29:27;;;;;;;9.55;5.53;;;;;;;19.20;100.00;101446.94;6173014;23;20013;-84
2023/08/21 02:31:53;;;;;;;8.60;5.97;;;;;;;19.20;100.00;101455.72;6169958;23;20021;-82
2023/08/21 02:34:21;;;;;;;11.68;5.47;;;;;;;19.18;100.00;101438.34;6168995;23;20025;-83
2023/08/21 02:36:48;;;;;;;11.75;5.38;;;;;;;19.22;100.00;101447.56;6172701;23;20117;-83
2023/08/21 02:39:15;;;;;;;12.43;5.75;;;;;;;19.19;100.00;101447.94;6172650;23;20026;-83
2023/08/21 02:41:41;;;;;;;14.95;5.72;;;;;;;19.17;100.00;101449.97;6171998;23;20025;-84
2023/08/21 02:44:08;;;;;;;10.43;5.40;;;;;;;19.19;100.00;101451.41;6172482;23;20032;-82
2023/08/21 02:46:36;;;;;;;11.23;6.00;;;;;;;19.16;100.00;101448.34;6171838;23;20030;-83
2023/08/21 02:49:02;;;;;;;12.05;5.72;;;;;;;19.11;100.00;101448.09;6168967;23;20290;-82
2023/08/21 02:51:30;;;;;;;7.07;5.30;;;;;;;19.06;100.00;101453.97;6169898;23;20080;-83
2023/08/21 02:53:57;;;;;;;10.40;5.72;;;;;;;19.07;100.00;101466.22;6169188;23;20073;-83
2023/08/21 02:56:24;;;;;;;11.10;5.78;;;;;;;19.05;100.00;101462.09;6169598;23;20025;-81
2023/08/21 02:58:50;;;;;;;13.95;6.70;;;;;;;19.00;100.00;101464.50;6167905;23;20450;-83
2023/08/21 03:01:18;;;;;;;10.32;6.30;;;;;;;18.91;100.00;101469.13;6168442;23;20029;-80
2023/08/21 03:03:46;;;;;;;11.00;6.55;;;;;;;18.85;100.00;101475.22;6169932;23;20089;-80
2023/08/21 03:06:13;;;;;;;14.20;6.35;;;;;;;18.86;100.00;101466.25;6171862;23;20032;-80
2023/08/21 03:08:43;;;;;;;8.55;5.90;;;;;;;18.91;100.00;101471.78;6169517;23;20026;-82
2023/08/21 03:11:09;;;;;;;10.95;5.78;;;;;;;18.96;100.00;101457.94;6173834;23;20094;-81
2023/08/21 03:13:36;;;;;;;9.90;5.78;;;;;;;19.00;100.00;101457.38;6169955;23;20021;-81
2023/08/21 03:16:04;;;;;;;8.82;5.78;;;;;;;19.02;100.00;101462.50;6168476;23;20052;-82
2023/08/21 03:18:32;;;;;;;14.20;6.45;;;;;;;19.00;100.00;101459.22;6169941;23;20462;-80
2023/08/21 03:20:59;;;;;;;10.05;5.47;;;;;;;19.04;100.00;101455.16;6164639;23;20076;-80
2023/08/21 03:23:25;;;;;;;10.23;6.03;;;;;;;19.04;100.00;101444.56;6164321;23;20033;-81
2023/08/21 03:25:54;;;;;;;9.23;5.82;;;;;;;19.06;100.00;101448.66;6163370;23;20514;-82
2023/08/21 03:28:21;;;;;;;9.75;5.93;;;;;;;19.06;100.00;101447.84;6163347;23;20026;-82
2023/08/21 03:30:47;;;;;;;12.35;6.68;;;;;;;19.00;100.00;101440.63;6162711;23;20056;-81
2023/08/21 03:33:14;;;;;;;10.98;6.50;;;;;;;19.04;100.00;101449.84;6165849;23;20057;-81
2023/08/21 03:35:40;;;;;;;10.05;6.18;;;;;;;19.08;100.00;101461.72;6168962;23;20036;-82
2023/08/21 03:38:07;;;;;;;8.95;5.75;;;;;;;19.11;100.00;101446.25;6169585;23;20025;-82
2023/08/21 03:40:34;;;;;;;11.02;5.88;;;;;;;19.13;100.00;101446.06;6173297;23;20021;-83
2023/08/21 03:43:01;;;;;;;9.07;5.85;;;;;;;19.13;100.00;101438.91;6175716;23;20033;-81
2023/08/21 03:45:28;;;;;;;9.13;5.72;;;;;;;19.19;100.00;101442.63;6164147;23;20036;-82
2023/08/21 03:47:55;;;;;;;15.95;6.57;;;;;;;19.17;100.00;101449.97;6162216;23;20032;-80
2023/08/21 03:50:21;;;;;;;10.80;6.18;;;;;;;19.19;100.00;101451.41;6167774;23;20055;-82
2023/08/21 03:52:48;;;;;;;12.30;5.90;;;;;;;19.18;100.00;101447.13;6168729;23;20021;-82
2023/08/21 03:55:15;;;;;;;8.65;5.63;;;;;;;19.20;100.00;101458.38;6169242;23;20025;-81
2023/08/21 03:57:41;;;;;;;8.75;6.32;;;;;;;19.14;100.00;101460.97;6168431;23;20457;-79
2023/08/21 04:00:11;;;;;;;13.95;6.10;;;;;;;19.18;100.00;101441.00;6166463;23;20029;-82
2023/08/21 04:02:37;;;;;;;10.60;5.85;;;;;;;19.15;100.00;101446.69;6164331;23;20055;-81
2023/08/21 04:05:04;;;;;;;8.98;5.95;;;;;;;19.14;100.00;101439.75;6164148;23;20036;-82
2023/08/21 04:07:31;;;;;;;9.50;6.00;;;;;;;19.16;100.00;101432.41;6167874;23;20080;-81
2023/08/21 04:09:58;;;;;;;11.65;5.78;;;;;;;19.13;100.00;101436.28;6166682;23;20057;-83
2023/08/21 04:12:24;;;;;;;9.98;5.90;;;;;;;19.11;100.00;101453.38;6168300;23;20018;-82
2023/08/21 04:14:51;;;;;;;15.60;6.25;;;;;;;19.05;100.00;101443.53;6172079;23;20411;-81
2023/08/21 04:17:22;;;;;;;9.10;5.93;;;;;;;19.05;100.00;101449.66;6170246;23;20125;-80
2023/08/21 04:19:49;;;;;;;12.60;5.68;;;;;;;19.09;100.00;101452.75;6170525;23;20025;-83
2023/08/21 04:22:15;;;;;;;10.02;5.50;;;;;;;19.16;100.00;101458.94;6171412;23;20036;-80
2023/08/21 04:24:43;;;;;;;10.35;5.88;;;;;;;19.22;100.00;101463.47;6168682;23;20032;-80
2023/08/21 04:27:11;;;;;;;10.02;5.68;;;;;;;19.26;100.00;101454.13;6168439;23;20417;-82
2023/08/21 04:29:40;;;;;;;9.75;5.32;;;;;;;19.25;100.00;101460.44;6166965;23;20084;-80
2023/08/21 04:32:07;;;;;;;10.38;5.50;;;;;;;19.35;100.00;101470.72;6165534;23;20032;-78
2023/08/21 04:34:35;;;;;;;10.07;6.07;;;;;;;19.27;100.00;101470.88;6163633;23;20084;-80
2023/08/21 04:37:02;;;;;;;11.45;6.43;;;;;;;19.27;100.00;101471.69;6166142;23;20018;-83
2023/08/21 04:39:28;;;;;;;8.50;5.88;;;;;;;19.21;100.00;101464.50;6165114;23;20060;-80
2023/08/21 04:41:55;;;;;;;8.70;5.85;;;;;;;19.14;100.00;101471.56;6163002;23;20056;-80
2023/08/21 04:44:22;;;;;;;11.80;6.45;;;;;;;19.11;100.00;101469.31;6169057;23;20025;-82
2023/08/21 04:46:50;;;;;;;10.82;6.45;;;;;;;19.18;100.00;101481.63;6165107;23;20025;-81
2023/08/21 04:49:16;;;;;;;14.63;8.95;;;;;;;19.25;100.00;101486.97;6175161;23;20045;-82
2023/08/21 04:51:45;;;;;;;10.35;6.32;;;;;;;19.26;100.00;101491.28;6179764;23;20021;-87
2023/08/21 04:54:12;;;;;;;10.43;6.10;;;;;;;19.28;100.00;101480.47;6175139;23;20024;-80
2023/08/21 04:56:40;;;;;;;13.18;6.05;;;;;;;19.30;100.00;101484.56;6166019;23;20488;-79
2023/08/21 04:59:28;;;;;;;;;;;;;;;;;;;;;
2023/08/21 05:04:40;;;;;;;9.98;6.05;;;;;;;19.43;100.00;101495.25;6132710;23;20050;-83
2023/08/21 05:07:10;;;;;;;12.45;6.95;;;;;;;19.35;100.00;101479.50;6146155;23;20037;-86
2023/08/21 05:09:37;;;;;;;11.60;6.00;;;;;;;19.19;100.00;101466.50;6150762;23;20014;-86
2023/08/21 05:12:07;;;;;;;15.40;7.75;;;;;;;19.30;100.00;101495.19;6150446;23;20017;-86
2023/08/21 05:14:36;;;;;;;11.63;6.60;;;;;;;19.37;100.00;101493.41;6149389;23;20061;-84
2023/08/21 05:17:13;;;;;;;12.43;6.50;;;;;;;19.36;100.00;101480.34;6144829;23;20557;-85
2023/08/21 05:19:39;;;;;;;11.40;7.32;;;;;;;19.29;100.00;101480.28;6147706;23;20432;-82
2023/08/21 05:22:08;;;;;;;10.80;6.35;;;;;;;19.39;100.00;101483.38;6145744;23;20022;-84
2023/08/21 05:24:35;;;;;;;14.18;7.10;;;;;;;19.44;100.00;101485.47;6140635;23;20059;-84
2023/08/21 05:27:04;;;;;;;12.68;6.60;;;;;;;19.52;100.00;101496.78;6137622;23;20022;-84
2023/08/21 05:29:31;;;;;;;9.88;7.20;;;;;;;19.59;100.00;101490.72;6135850;23;20036;-84
2023/08/21 05:32:00;;;;;;;13.20;6.80;;;;;;;19.68;100.00;101468.31;6136544;23;20029;-80
2023/08/21 05:34:28;;;;;;;12.88;6.53;;;;;;;19.92;99.79;101481.09;6137229;23;20025;-82
2023/08/21 05:36:54;;;;;;;10.18;6.30;;;;;;;20.08;99.04;101480.78;6136413;23;20037;-81
2023/08/21 05:39:28;;;;;;;10.00;6.40;;;;;;;20.35;97.57;101480.84;6134511;23;20026;-80
2023/08/21 05:41:55;;;;;;;11.40;6.10;;;;;;;20.73;95.08;101458.09;6139458;23;20034;-81
2023/08/21 05:44:22;;;;;;;8.45;5.53;;;;;;;21.58;91.26;101429.81;6142216;23;20028;-83
2023/08/21 05:46:49;;;;;;;11.18;6.00;;;;;;;22.66;87.38;101460.09;6146268;23;20029;-82
2023/08/21 05:49:15;;;;;;;8.95;5.25;;;;;;;23.06;83.73;101425.91;6146286;23;20066;-84
2023/08/21 05:51:45;;;;;;;11.40;5.60;;;;;;;23.66;81.12;101422.66;6142108;23;20425;-83
2023/08/21 05:54:11;;;;;;;8.13;5.10;;;;;;;24.09;79.45;101449.28;6140565;23;20058;-83
2023/08/21 05:56:39;;;;;;;11.90;5.90;;;;;;;23.38;80.54;101463.19;6141235;23;20446;-81
2023/08/21 05:59:06;;;;;;;10.27;5.57;;;;;;;22.73;82.97;101462.69;6138992;23;20026;-83
2023/08/21 06:01:35;;;;;;;8.15;5.10;;;;;;;22.43;85.19;101486.47;6139988;23;20022;-81
2023/08/21 06:04:03;;;;;;;9.50;6.00;;;;;;;21.95;86.83;101502.03;6143809;23;20081;-84
2023/08/21 06:06:30;;;;;;;9.82;5.70;;;;;;;21.55;88.46;101477.34;6144069;23;20019;-82
2023/08/21 06:08:57;;;;;;;12.82;5.70;;;;;;;22.25;88.73;101503.16;6140213;23;20025;-81
2023/08/21 06:11:27;;;;;;;9.95;5.70;;;;;;;23.10;85.96;101477.03;6138624;23;20030;-82
2023/08/21 06:13:55;;;;;;;8.65;5.63;;;;;;;23.86;82.39;101451.81;6137383;23;20030;-83
2023/08/21 06:16:21;;;;;;;10.95;5.93;;;;;;;24.66;78.56;101452.41;6131916;23;20014;-83
2023/08/21 06:18:48;;;;;;;10.52;5.40;;;;;;;25.04;76.24;101430.63;6133025;23;20037;-83
2023/08/21 06:21:15;;;;;;;10.88;5.72;;;;;;;25.66;75.20;101452.38;6134394;23;20474;-82
2023/08/21 06:23:44;;;;;;;9.40;5.40;;;;;;;25.99;72.88;101444.50;6135220;23;20044;-83
2023/08/21 06:26:11;;;;;;;11.98;5.60;;;;;;;26.35;71.87;101446.00;6134121;23;20022;-83
2023/08/21 06:28:49;;;;;;;9.57;5.20;;;;;;;26.83;70.72;101444.66;6135831;23;20037;-82
2023/08/21 06:31:17;;;;;;;8.15;5.15;;;;;;;26.90;69.56;101441.81;6137062;23;20018;-83
2023/08/21 06:56:42;;;;;;;;;;;;;;;;;;;;;
2023/08/21 08:56:21;;;;;;;16.77;7.70;;;;;;;30.44;60.35;101445.19;6167441;23;20025;-85
2023/08/21 09:02:04;;;;;;;28.63;8.93;;;;;;;30.04;60.44;101442.16;6135069;23;20032;-84
2023/08/21 09:05:10;;;;;;;;;;;;;;;;;;;;;
2023/08/21 09:08:28;;;;;;;17.38;10.40;;;;;;;30.38;60.43;101450.56;6143095;23;20018;-81
2023/08/21 09:10:56;;;;;;;19.42;8.82;;;;;;;30.00;60.92;101441.06;6143664;23;20270;-82
2023/08/21 09:13:23;;;;;;;18.98;9.77;;;;;;;29.81;60.99;101463.34;6143293;23;20033;-81
2023/08/21 09:15:57;;;;;;;18.75;10.55;;;;;;;29.72;61.58;101465.78;6143220;23;20101;-82
2023/08/21 09:18:29;;;;;;;22.60;10.20;;;;;;;29.49;62.71;101468.88;6143164;23;20026;-83
2023/08/21 09:20:58;;;;;;;18.05;10.65;;;;;;;30.09;61.91;101467.53;6143987;23;20022;-83
2023/08/21 09:23:26;;;;;;;20.48;10.40;;;;;;;30.19;60.91;101456.78;6143441;23;20081;-83
2023/08/21 09:25:52;;;;;;;23.70;11.75;;;;;;;29.58;61.13;101448.44;6144201;23;20022;-82
2023/08/21 09:28:24;;;;;;;17.08;10.10;;;;;;;29.64;63.04;101477.06;6143217;23;20064;-84
2023/08/21 09:30:53;;;;;;;19.25;12.45;;;;;;;29.42;61.35;101433.25;6144242;23;20088;-83
2023/08/21 09:33:27;;;;;;;15.93;12.57;;;;;;;28.79;62.82;101448.44;6143189;23;20018;-83
2023/08/21 09:35:57;;;;;;;19.90;11.48;;;;;;;29.43;63.43;101459.94;6141290;23;20025;-84
2023/08/21 09:38:24;;;;;;;17.90;12.32;;;;;;;29.45;63.00;101455.13;6141872;23;20081;-84
2023/08/21 09:40:57;;;;;;;14.90;12.18;;;;;;;29.55;62.61;101455.16;6141982;23;20029;-84
2023/08/21 09:43:42;;;;;;;15.77;12.57;;;;;;;29.21;62.91;101454.69;6140812;23;20018;-85
2023/08/21 09:46:11;;;;;;;20.65;14.27;;;;;;;28.57;64.92;101460.09;6140821;23;20018;-84
2023/08/21 09:48:44;;;;;;;17.30;13.40;;;;;;;28.36;65.69;101458.25;6141376;23;20017;-83
2023/08/21 09:51:18;;;;;;;20.55;14.52;;;;;;;28.56;65.50;101434.25;6142053;23;20249;-84
2023/08/21 09:53:45;;;;;;;26.83;14.52;;;;;;;28.49;65.75;101441.72;6144056;23;20022;-84
2023/08/21 09:56:14;;;;;;;18.20;12.52;;;;;;;28.77;64.63;101447.88;6139231;23;20120;-83
2023/08/21 09:58:50;;;;;;;17.10;13.15;;;;;;;29.00;64.39;101448.34;6140723;23;20026;-83
2023/08/21 10:01:22;;;;;;;19.58;13.27;;;;;;;29.43;63.73;101434.88;6139002;23;20049;-86
2023/08/21 10:03:52;;;;;;;19.25;12.63;;;;;;;29.44;63.79;101436.50;6138494;23;20530;-84
2023/08/21 10:06:22;;;;;;;18.63;12.40;;;;;;;29.58;62.96;101426.88;6138108;23;20068;-84
2023/08/21 10:09:01;;;;;;;15.85;12.32;;;;;;;29.74;63.19;101447.44;6138845;23;20049;-84
2023/08/21 10:11:31;;;;;;;18.48;12.98;;;;;;;29.61;63.08;101431.72;6139730;23;20017;-83
2023/08/21 10:14:00;;;;;;;18.58;15.07;;;;;;;29.25;63.87;101420.75;6139562;23;20017;-84
2023/08/21 10:16:27;;;;;;;14.73;11.45;;;;;;;29.42;63.78;101417.06;6140219;23;20105;-83
2023/08/21 10:18:54;;;;;;;17.45;14.05;;;;;;;29.08;63.34;101417.41;6141580;23;20022;-84
2023/08/21 10:21:47;;;;;;;16.65;14.82;;;;;;;28.67;63.87;101417.09;6140451;23;20459;-82
2023/08/21 10:24:26;;;;;;;20.27;12.52;;;;;;;29.19;65.39;101445.25;6134268;23;20072;-84
2023/08/21 10:26:53;;;;;;;17.65;13.63;;;;;;;29.02;63.64;101407.66;6132129;23;20439;-84
2023/08/21 10:29:21;;;;;;;17.50;12.90;;;;;;;29.33;64.00;101431.00;6137981;23;20097;-83
2023/08/21 10:31:59;;;;;;;14.77;12.98;;;;;;;29.16;63.66;101395.38;6146086;23;20041;-84
2023/08/21 10:34:33;;;;;;;18.50;13.52;;;;;;;29.38;64.16;101430.22;6148207;23;20022;-83
2023/08/21 10:37:16;;;;;;;17.08;13.73;;;;;;;29.51;63.87;101423.59;6146249;23;20033;-83
2023/08/21 10:39:55;;;;;;;17.63;12.82;;;;;;;29.64;62.94;101420.41;6147172;23;20021;-85
2023/08/21 10:42:38;;;;;;;19.00;14.20;;;;;;;29.97;62.37;101430.78;6147296;23;20026;-82
2023/08/21 10:45:13;;;;;;;25.30;14.57;;;;;;;29.87;62.26;101435.31;6145659;23;20026;-84
2023/08/21 10:47:46;;;;;;;18.58;15.52;;;;;;;29.24;62.24;101413.75;6146486;23;20652;-84
2023/08/21 10:50:15;;;;;;;21.92;13.57;;;;;;;29.09;63.40;101421.72;6144836;23;20018;-84
2023/08/21 10:52:45;;;;;;;15.65;12.30;;;;;;;29.43;63.39;101418.69;6141508;23;20062;-84
2023/08/21 10:55:14;;;;;;;16.48;12.65;;;;;;;29.48;62.38;101416.03;6140883;23;20033;-83
2023/08/21 10:57:49;;;;;;;13.68;10.85;;;;;;;29.56;62.34;101427.13;6138165;23;20030;-84
2023/08/21 11:00:20;;;;;;;16.83;11.40;;;;;;;29.88;61.80;101420.75;6139016;23;20086;-85
2023/08/21 11:02:52;;;;;;;14.23;10.35;;;;;;;29.97;62.78;101436.16;6141085;23;20096;-84
2023/08/21 11:05:20;;;;;;;16.20;11.70;;;;;;;29.46;61.94;101418.97;6141599;23;20049;-85
2023/08/21 11:07:49;;;;;;;16.73;9.70;;;;;;;29.77;62.33;101414.53;6140905;23;20022;-84
2023/08/21 11:10:25;;;;;;;15.93;10.25;;;;;;;29.38;62.37;101417.56;6140233;23;20041;-84
2023/08/21 11:12:55;;;;;;;15.68;10.18;;;;;;;29.63;61.37;101402.63;6136357;23;20022;-84
2023/08/21 11:15:30;;;;;;;14.77;9.80;;;;;;;29.37;61.49;101405.16;6135482;23;20050;-85
2023/08/21 11:18:25;;;;;;;11.68;9.13;;;;;;;29.17;61.88;101396.19;6133307;23;20025;-84
2023/08/21 11:20:51;;;;;;;13.75;8.63;;;;;;;29.78;62.10;101426.13;6133809;23;20022;-85
2023/08/21 11:23:38;;;;;;;14.50;9.88;;;;;;;29.70;61.79;101428.28;6133110;23;20032;-85
2023/08/21 11:26:15;;;;;;;14.07;10.23;;;;;;;29.31;61.13;101422.38;6134159;23;20026;-84
2023/08/21 11:28:45;;;;;;;16.80;10.80;;;;;;;29.23;61.87;101430.16;6132737;23;20407;-85
2023/08/21 11:31:28;;;;;;;15.98;9.05;;;;;;;29.12;62.40;101417.69;6133949;23;20010;-83
2023/08/21 11:33:57;;;;;;;19.17;14.32;;;;;;;28.83;62.45;101420.72;6134904;23;20396;-84
2023/08/21 11:36:24;;;;;;;18.40;11.57;;;;;;;28.91;62.33;101422.13;6146162;23;20028;-85
2023/08/21 11:39:01;;;;;;;11.82;9.35;;;;;;;29.18;62.05;101427.44;6138172;23;20025;-85
2023/08/21 11:41:30;;;;;;;14.07;10.63;;;;;;;29.03;61.86;101428.16;6135459;23;20400;-85
2023/08/21 11:44:11;;;;;;;15.02;8.60;;;;;;;29.21;60.43;101390.00;6136847;23;20053;-85
2023/08/21 11:46:40;;;;;;;15.25;10.52;;;;;;;29.42;59.89;101406.28;6135949;23;20046;-83
2023/08/21 11:49:08;;;;;;;21.55;8.98;;;;;;;29.50;60.33;101421.97;6135605;23;20022;-85
2023/08/21 11:51:39;;;;;;;14.82;8.40;;;;;;;29.53;59.97;101405.28;6135835;23;20452;-84
2023/08/21 11:54:11;;;;;;;14.23;9.80;;;;;;;29.48;59.69;101399.84;6135363;23;20037;-84
2023/08/21 11:56:41;;;;;;;12.38;8.65;;;;;;;29.60;60.21;101403.97;6134465;23;20081;-84
2023/08/21 11:59:09;;;;;;;17.30;9.18;;;;;;;30.11;58.37;101411.41;6132143;23;20048;-85
2023/08/21 12:01:37;;;;;;;14.85;8.80;;;;;;;29.84;58.82;101396.19;6134267;23;20024;-84
2023/08/21 12:04:17;;;;;;;11.43;7.20;;;;;;;29.91;59.43;101412.94;6133155;23;20328;-85
2023/08/21 12:06:45;;;;;;;10.93;7.47;;;;;;;29.51;59.40;101410.13;6133197;23;20018;-85
2023/08/21 12:09:18;;;;;;;13.25;7.50;;;;;;;29.68;59.31;101391.84;6132833;23;20022;-86
2023/08/21 12:11:45;;;;;;;10.23;7.03;;;;;;;30.00;58.67;101405.97;6131353;23;20029;-86
2023/08/21 12:14:12;;;;;;;15.20;7.82;;;;;;;30.02;58.57;101405.72;6132801;23;20437;-85
2023/08/21 12:16:42;;;;;;;18.75;7.82;;;;;;;29.67;58.63;101396.44;6134079;23;20093;-85
2023/08/21 12:19:11;;;;;;;11.20;7.03;;;;;;;30.12;58.84;101397.66;6135712;23;20053;-85
2023/08/21 12:21:39;;;;;;;14.70;6.78;;;;;;;29.69;58.64;101375.41;6132033;23;20566;-88
2023/08/21 12:24:07;;;;;;;11.00;6.68;;;;;;;29.52;59.20;101384.78;6135287;23;20030;-85
2023/08/21 12:26:34;;;;;;;11.13;6.13;;;;;;;29.52;59.61;101393.66;6139856;23;20022;-85
2023/08/21 12:29:02;;;;;;;18.73;6.90;;;;;;;29.44;59.30;101404.16;6139336;23;20022;-84
2023/08/21 12:31:33;;;;;;;13.38;7.38;;;;;;;29.11;59.11;101370.28;6138940;23;20037;-85
2023/08/21 12:34:00;;;;;;;17.00;6.55;;;;;;;29.39;60.00;101403.00;6138473;23;20018;-84
2023/08/21 12:36:30;;;;;;;14.23;7.35;;;;;;;29.11;59.57;101373.78;6140397;23;20359;-84
2023/08/21 12:39:00;;;;;;;11.57;6.10;;;;;;;29.36;58.85;101373.06;6138861;23;20080;-84
2023/08/21 12:41:28;;;;;;;11.02;6.78;;;;;;;29.45;58.43;101357.25;6139261;23;20053;-88
2023/08/21 12:44:00;;;;;;;10.75;6.40;;;;;;;29.64;58.48;101379.97;6138894;23;20022;-86
2023/08/21 12:46:29;;;;;;;10.27;6.80;;;;;;;29.46;58.08;101356.16;6141301;23;20017;-87
2023/08/21 12:48:59;;;;;;;11.32;6.70;;;;;;;29.40;58.23;101350.72;6140307;23;20045;-86
2023/08/21 12:51:26;;;;;;;12.43;6.53;;;;;;;29.25;57.43;101342.59;6142217;23;20084;-84
2023/08/21 12:53:53;;;;;;;13.63;6.32;;;;;;;29.44;57.93;101361.81;6142098;23;20264;-85
2023/08/21 12:56:23;;;;;;;10.15;6.85;;;;;;;29.65;57.56;101382.41;6141244;23;20025;-84
2023/08/21 12:58:53;;;;;;;14.73;6.57;;;;;;;29.36;57.64;101360.41;6141083;23;20498;-84
2023/08/21 13:01:21;;;;;;;11.07;6.88;;;;;;;28.95;58.35;101367.47;6140913;23;20436;-84
2023/08/21 13:03:48;;;;;;;15.73;6.45;;;;;;;29.10;57.59;101350.59;6140970;23;20100;-85
2023/08/21 13:06:17;;;;;;;9.55;5.97;;;;;;;29.60;57.77;101368.09;6140849;23;20026;-84
2023/08/21 13:08:50;;;;;;;13.45;6.00;;;;;;;29.88;57.12;101388.38;6140148;23;20036;-85
2023/08/21 13:11:33;;;;;;;11.45;6.20;;;;;;;29.64;57.40;101361.09;6138525;23;20414;-84
2023/08/21 13:14:00;;;;;;;10.75;5.95;;;;;;;29.98;56.87;101362.22;6139468;23;20026;-83
2023/08/21 13:16:53;;;;;;;14.32;6.38;;;;;;;29.87;56.86;101365.97;6141078;23;20010;-84
2023/08/21 13:19:21;;;;;;;8.27;5.90;;;;;;;29.79;57.04;101373.78;6134319;23;20088;-85
2023/08/21 13:21:51;;;;;;;12.40;6.50;;;;;;;29.68;57.01;101360.28;6138643;23;20466;-84
2023/08/21 13:24:18;;;;;;;10.93;6.00;;;;;;;29.16;57.73;101340.66;6138882;23;20018;-84
2023/08/21 13:26:47;;;;;;;10.02;6.20;;;;;;;29.39;57.07;101367.97;6139714;23;20056;-85
2023/08/21 13:29:16;;;;;;;10.68;6.43;;;;;;;29.54;57.95;101363.75;6140185;23;20034;-85
2023/08/21 13:31:43;;;;;;;12.40;6.25;;;;;;;29.44;57.54;101356.44;6140806;23;20029;-85
2023/08/21 13:34:13;;;;;;;13.43;6.18;;;;;;;29.19;57.42;101332.84;6139800;23;20041;-85
2023/08/21 13:36:40;;;;;;;9.73;5.63;;;;;;;29.55;57.44;101366.19;6141071;23;20058;-85
2023/08/21 13:39:10;;;;;;;10.32;5.60;;;;;;;29.66;56.51;101348.16;6137508;23;20026;-84
2023/08/21 13:41:37;;;;;;;9.70;5.82;;;;;;;29.83;56.74;101364.09;6140470;23;20064;-86
2023/08/21 13:44:42;;;;;;;9.05;5.78;;;;;;;29.91;56.24;101358.16;6141948;23;20042;-85
2023/08/21 13:47:48;;;;;;;11.50;5.57;;;;;;;29.74;56.52;101355.72;6140331;23;20061;-86
2023/08/21 13:50:42;;;;;;;8.07;5.40;;;;;;;29.65;56.26;101336.56;6080164;23;20052;-85
2023/08/21 13:53:11;;;;;;;12.13;5.97;;;;;;;29.71;56.98;101356.25;6136680;23;20045;-85
2023/08/21 13:55:46;;;;;;;12.38;6.10;;;;;;;29.74;56.17;101349.53;6134884;23;20033;-87
2023/08/21 13:58:15;;;;;;;12.15;5.72;;;;;;;29.36;56.12;101324.53;6132902;23;20026;-85